sensor_id;sensor_type;location;lat;lon;timestamp;pressure;altitude;pressure_sealevel;temperature;humidity
54503;BME280;40411;50.090;21.954;2023-07-31T00:02:16;12438.41;;;23.95;82.52
54503;BME280;40411;50.090;21.954;2023-07-31T00:04:42;12772.13;;;23.83;82.26
54503;BME280;40411;50.090;21.954;2023-07-31T00:07:08;12772.41;;;23.84;82.61
54503;BME280;40411;50.090;21.954;2023-07-31T00:09:33;12771.84;;;23.82;82.72
54503;BME280;40411;50.090;21.954;2023-07-31T00:11:59;13106.72;;;23.75;83.12
54503;BME280;40411;50.090;21.954;2023-07-31T00:14:25;12774.94;;;23.94;81.60
54503;BME280;40411;50.090;21.954;2023-07-31T00:16:51;13109.97;;;23.87;81.58
54503;BME280;40411;50.090;21.954;2023-07-31T00:19:17;13773.59;;;23.51;83.29
54503;BME280;40411;50.090;21.954;2023-07-31T00:21:44;13774.28;;;23.53;83.16
54503;BME280;40411;50.090;21.954;2023-07-31T00:24:10;13774.72;;;23.55;82.73
54503;BME280;40411;50.090;21.954;2023-07-31T00:26:36;14442.59;;;23.35;83.24
54503;BME280;40411;50.090;21.954;2023-07-31T00:29:01;15109.09;;;23.12;83.61
54503;BME280;40411;50.090;21.954;2023-07-31T00:31:27;14443.91;;;23.40;82.23
54503;BME280;40411;50.090;21.954;2023-07-31T00:33:54;15110.91;;;23.18;83.49
54503;BME280;40411;50.090;21.954;2023-07-31T00:36:20;15773.16;;;22.83;84.92
54503;BME280;40411;50.090;21.954;2023-07-31T00:38:46;15436.41;;;22.82;85.27
54503;BME280;40411;50.090;21.954;2023-07-31T00:41:12;15438.25;;;22.88;85.55
54503;BME280;40411;50.090;21.954;2023-07-31T00:43:37;15437.00;;;22.84;85.21
54503;BME280;40411;50.090;21.954;2023-07-31T00:46:03;15106.81;;;23.05;84.24
54503;BME280;40411;50.090;21.954;2023-07-31T00:48:30;14776.09;;;23.25;82.44
54503;BME280;40411;50.090;21.954;2023-07-31T00:50:57;14778.03;;;23.31;81.98
54503;BME280;40411;50.090;21.954;2023-07-31T00:53:24;14777.00;;;23.28;82.06
54503;BME280;40411;50.090;21.954;2023-07-31T00:55:52;15112.44;;;23.24;82.39
54503;BME280;40411;50.090;21.954;2023-07-31T00:58:18;15444.13;;;23.07;82.70
54503;BME280;40411;50.090;21.954;2023-07-31T01:00:44;15113.03;;;23.26;81.78
54503;BME280;40411;50.090;21.954;2023-07-31T01:03:10;15110.00;;;23.15;82.55
54503;BME280;40411;50.090;21.954;2023-07-31T01:11:53;14778.78;;;23.34;81.93
54503;BME280;40411;50.090;21.954;2023-07-31T01:14:21;15113.50;;;23.27;81.80
54503;BME280;40411;50.090;21.954;2023-07-31T01:16:47;14781.03;;;23.41;81.08
54503;BME280;40411;50.090;21.954;2023-07-31T01:19:14;15116.84;;;23.38;81.11
54503;BME280;40411;50.090;21.954;2023-07-31T01:27:23;15118.06;;;23.42;80.14
54503;BME280;40411;50.090;21.954;2023-07-31T01:30:01;14783.88;;;23.51;79.91
54503;BME280;40411;50.090;21.954;2023-07-31T01:32:30;15785.16;;;23.22;80.87
54503;BME280;40411;50.090;21.954;2023-07-31T01:34:57;16448.81;;;22.91;81.32
54503;BME280;40411;50.090;21.954;2023-07-31T01:37:33;16451.09;;;22.98;81.42
54503;BME280;40411;50.090;21.954;2023-07-31T01:39:58;16447.84;;;22.88;82.04
54503;BME280;40411;50.090;21.954;2023-07-31T01:42:24;16448.97;;;22.91;82.06
54503;BME280;40411;50.090;21.954;2023-07-31T01:44:50;17448.78;;;22.61;82.87
54503;BME280;40411;50.090;21.954;2023-07-31T01:47:16;17446.41;;;22.54;83.02
54503;BME280;40411;50.090;21.954;2023-07-31T01:49:42;17445.38;;;22.51;83.41
54503;BME280;40411;50.090;21.954;2023-07-31T01:52:08;17780.81;;;22.48;82.88
54503;BME280;40411;50.090;21.954;2023-07-31T01:54:33;18113.41;;;22.37;82.80
54503;BME280;40411;50.090;21.954;2023-07-31T01:56:59;18781.66;;;22.23;82.92
54503;BME280;40411;50.090;21.954;2023-07-31T01:59:25;19113.69;;;22.11;83.82
54503;BME280;40411;50.090;21.954;2023-07-31T02:01:51;18780.56;;;22.20;82.94
54503;BME280;40411;50.090;21.954;2023-07-31T02:04:17;19114.03;;;22.12;83.23
54503;BME280;40411;50.090;21.954;2023-07-31T02:06:44;19115.69;;;22.17;83.30
54503;BME280;40411;50.090;21.954;2023-07-31T02:09:09;18782.75;;;22.26;82.58
54503;BME280;40411;50.090;21.954;2023-07-31T02:11:35;19778.56;;;21.90;84.12
54503;BME280;40411;50.090;21.954;2023-07-31T02:14:01;19443.19;;;21.92;84.17
54503;BME280;40411;50.090;21.954;2023-07-31T02:16:27;19445.03;;;21.97;83.78
54503;BME280;40411;50.090;21.954;2023-07-31T02:18:53;19115.53;;;22.16;82.51
54503;BME280;40411;50.090;21.954;2023-07-31T02:21:19;19447.84;;;22.05;83.07
54503;BME280;40411;50.090;21.954;2023-07-31T02:23:45;19783.50;;;22.03;83.04
54503;BME280;40411;50.090;21.954;2023-07-31T02:26:11;19784.81;;;22.06;82.45
54503;BME280;40411;50.090;21.954;2023-07-31T02:28:36;19451.59;;;22.15;82.32
54503;BME280;40411;50.090;21.954;2023-07-31T02:31:03;19118.09;;;22.23;81.77
54503;BME280;40411;50.090;21.954;2023-07-31T02:33:28;19782.75;;;22.01;82.41
54503;BME280;40411;50.090;21.954;2023-07-31T02:35:54;19451.59;;;22.15;82.02
54503;BME280;40411;50.090;21.954;2023-07-31T02:38:21;19787.28;;;22.13;81.66
54503;BME280;40411;50.090;21.954;2023-07-31T02:40:47;19783.13;;;22.02;82.13
54503;BME280;40411;50.090;21.954;2023-07-31T02:43:13;19783.69;;;22.03;82.19
54503;BME280;40411;50.090;21.954;2023-07-31T02:45:39;19452.91;;;22.19;81.61
54503;BME280;40411;50.090;21.954;2023-07-31T02:48:05;18784.38;;;22.31;81.59
54503;BME280;40411;50.090;21.954;2023-07-31T02:50:32;18785.28;;;22.34;81.91
54503;BME280;40411;50.090;21.954;2023-07-31T02:52:58;18118.72;;;22.52;81.17
54503;BME280;40411;50.090;21.954;2023-07-31T02:55:24;17784.63;;;22.59;80.88
54503;BME280;40411;50.090;21.954;2023-07-31T02:57:50;17117.34;;;22.77;80.21
54503;BME280;40411;50.090;21.954;2023-07-31T03:00:18;17454.59;;;22.79;79.99
54503;BME280;40411;50.090;21.954;2023-07-31T03:02:43;16786.91;;;22.95;79.38
54503;BME280;40411;50.090;21.954;2023-07-31T03:05:09;16788.06;;;22.99;79.59
54503;BME280;40411;50.090;21.954;2023-07-31T03:07:35;17785.66;;;22.62;80.97
54503;BME280;40411;50.090;21.954;2023-07-31T03:10:01;17447.94;;;22.59;81.61
54503;BME280;40411;50.090;21.954;2023-07-31T03:12:28;16785.91;;;22.92;80.38
54503;BME280;40411;50.090;21.954;2023-07-31T03:14:53;16454.03;;;23.07;79.59
54503;BME280;40411;50.090;21.954;2023-07-31T03:17:19;16782.44;;;22.82;81.10
54503;BME280;40411;50.090;21.954;2023-07-31T03:19:45;17116.81;;;22.75;81.33
54503;BME280;40411;50.090;21.954;2023-07-31T03:22:11;17447.94;;;22.59;81.99
54503;BME280;40411;50.090;21.954;2023-07-31T03:24:37;17446.91;;;22.56;82.21
54503;BME280;40411;50.090;21.954;2023-07-31T03:27:02;17447.75;;;22.58;81.68
54503;BME280;40411;50.090;21.954;2023-07-31T03:29:28;17781.50;;;22.50;81.70
54503;BME280;40411;50.090;21.954;2023-07-31T03:31:54;17449.81;;;22.64;80.86
54503;BME280;40411;50.090;21.954;2023-07-31T03:34:20;17785.16;;;22.61;80.92
54503;BME280;40411;50.090;21.954;2023-07-31T03:36:46;17781.50;;;22.50;81.53
54503;BME280;40411;50.090;21.954;2023-07-31T03:39:11;17448.63;;;22.61;81.64
54503;BME280;40411;50.090;21.954;2023-07-31T03:41:37;17446.75;;;22.55;81.67
54503;BME280;40411;50.090;21.954;2023-07-31T03:44:03;17444.34;;;22.48;82.97
54503;BME280;40411;50.090;21.954;2023-07-31T03:46:30;17774.91;;;22.30;84.55
54503;BME280;40411;50.090;21.954;2023-07-31T03:48:56;16112.56;;;22.92;81.64
54503;BME280;40411;50.090;21.954;2023-07-31T03:51:22;15778.38;;;23.00;82.11
54503;BME280;40411;50.090;21.954;2023-07-31T03:53:48;15114.25;;;23.30;80.60
54503;BME280;40411;50.090;21.954;2023-07-31T03:56:14;14778.78;;;23.34;80.90
54503;BME280;40411;50.090;21.954;2023-07-31T03:58:39;14443.75;;;23.39;81.60
54503;BME280;40411;50.090;21.954;2023-07-31T04:01:05;15773.47;;;22.84;83.91
54503;BME280;40411;50.090;21.954;2023-07-31T04:03:31;15439.19;;;22.91;83.91
54503;BME280;40411;50.090;21.954;2023-07-31T04:05:57;15104.81;;;22.98;83.74
54503;BME280;40411;50.090;21.954;2023-07-31T04:08:23;16766.88;;;22.34;86.42
54503;BME280;40411;50.090;21.954;2023-07-31T04:10:49;15768.59;;;22.68;85.33
54503;BME280;40411;50.090;21.954;2023-07-31T04:13:16;16433.19;;;22.42;86.47
54503;BME280;40411;50.090;21.954;2023-07-31T04:15:42;14098.59;;;23.09;84.62
54503;BME280;40411;50.090;21.954;2023-07-31T04:18:08;13766.66;;;23.26;84.03
54503;BME280;40411;50.090;21.954;2023-07-31T04:20:33;12769.72;;;23.74;81.86
54503;BME280;40411;50.090;21.954;2023-07-31T04:22:59;13103.44;;;23.62;82.30
54503;BME280;40411;50.090;21.954;2023-07-31T04:25:25;12767.06;;;23.63;82.90
54503;BME280;40411;50.090;21.954;2023-07-31T04:27:51;13103.84;;;23.64;81.66
54503;BME280;40411;50.090;21.954;2023-07-31T04:30:17;12432.91;;;23.73;82.36
54503;BME280;40411;50.090;21.954;2023-07-31T04:32:43;12434.34;;;23.79;81.74
54503;BME280;40411;50.090;21.954;2023-07-31T04:35:08;11098.81;;;24.26;81.31
54503;BME280;40411;50.090;21.954;2023-07-31T04:37:34;10097.66;;;24.68;80.80
54503;BME280;40411;50.090;21.954;2023-07-31T04:40:00;10433.03;;;24.61;78.98
54503;BME280;40411;50.090;21.954;2023-07-31T04:42:26;10433.38;;;24.62;79.47
54503;BME280;40411;50.090;21.954;2023-07-31T04:44:52;9434.81;;;25.21;77.26
54503;BME280;40411;50.090;21.954;2023-07-31T04:47:19;10102.84;;;24.91;77.42
54503;BME280;40411;50.090;21.954;2023-07-31T04:49:45;8429.63;;;25.53;76.00
54503;BME280;40411;50.090;21.954;2023-07-31T04:52:11;9769.28;;;25.08;76.88
54503;BME280;40411;50.090;21.954;2023-07-31T04:54:36;9099.94;;;25.32;76.92
54503;BME280;40411;50.090;21.954;2023-07-31T04:57:02;8765.28;;;25.45;76.00
54503;BME280;40411;50.090;21.954;2023-07-31T04:59:28;9767.72;;;25.01;78.11
54503;BME280;40411;50.090;21.954;2023-07-31T05:01:54;8426.88;;;25.38;78.09
54503;BME280;40411;50.090;21.954;2023-07-31T05:04:20;10768.38;;;24.53;79.43
54503;BME280;40411;50.090;21.954;2023-07-31T05:06:45;10767.19;;;24.48;80.09
54503;BME280;40411;50.090;21.954;2023-07-31T05:09:11;10767.66;;;24.50;79.76
54503;BME280;40411;50.090;21.954;2023-07-31T05:11:37;11767.66;;;24.06;81.63
54503;BME280;40411;50.090;21.954;2023-07-31T05:14:03;12770.00;;;23.75;82.12
54503;BME280;40411;50.090;21.954;2023-07-31T05:16:29;12768.38;;;23.69;82.85
54503;BME280;40411;50.090;21.954;2023-07-31T05:18:54;12101.75;;;23.95;81.87
54503;BME280;40411;50.090;21.954;2023-07-31T05:21:20;11770.28;;;24.17;80.80
54503;BME280;40411;50.090;21.954;2023-07-31T05:23:46;10767.66;;;24.50;79.48
54503;BME280;40411;50.090;21.954;2023-07-31T05:26:13;10766.94;;;24.47;79.90
54503;BME280;40411;50.090;21.954;2023-07-31T05:28:39;11769.78;;;24.15;80.56
54503;BME280;40411;50.090;21.954;2023-07-31T05:31:05;10765.06;;;24.39;80.32
54503;BME280;40411;50.090;21.954;2023-07-31T05:33:32;10432.56;;;24.59;79.66
54503;BME280;40411;50.090;21.954;2023-07-31T05:35:59;10433.63;;;24.63;79.24
54503;BME280;40411;50.090;21.954;2023-07-31T05:38:25;10098.34;;;24.71;79.16
54503;BME280;40411;50.090;21.954;2023-07-31T05:40:51;9096.91;;;25.17;77.66
54503;BME280;40411;50.090;21.954;2023-07-31T05:43:16;8429.44;;;25.52;76.49
54503;BME280;40411;50.090;21.954;2023-07-31T05:45:43;8430.03;;;25.55;75.92
54503;BME280;40411;50.090;21.954;2023-07-31T05:48:08;7759.56;;;25.77;75.96
54503;BME280;40411;50.090;21.954;2023-07-31T05:50:34;8433.41;;;25.72;74.83
54503;BME280;40411;50.090;21.954;2023-07-31T05:53:00;8765.09;;;25.44;75.85
54503;BME280;40411;50.090;21.954;2023-07-31T05:55:26;9765.53;;;24.90;78.49
54503;BME280;40411;50.090;21.954;2023-07-31T05:57:55;8765.91;;;25.48;76.07
54503;BME280;40411;50.090;21.954;2023-07-31T06:00:21;7093.91;;;26.28;73.09
54503;BME280;40411;50.090;21.954;2023-07-31T06:02:47;8100.09;;;25.94;72.63
54503;BME280;40411;50.090;21.954;2023-07-31T06:05:13;8433.91;;;25.75;73.85
54503;BME280;40411;50.090;21.954;2023-07-31T06:07:39;8767.13;;;25.54;74.96
54503;BME280;40411;50.090;21.954;2023-07-31T06:10:05;7430.28;;;26.22;73.10
54503;BME280;40411;50.090;21.954;2023-07-31T06:12:34;8100.19;;;25.94;72.55
54503;BME280;40411;50.090;21.954;2023-07-31T06:15:02;8435.97;;;25.85;73.08
54503;BME280;40411;50.090;21.954;2023-07-31T06:17:28;7768.69;;;26.26;71.28
54503;BME280;40411;50.090;21.954;2023-07-31T06:19:56;6764.28;;;26.76;69.92
54503;BME280;40411;50.090;21.954;2023-07-31T06:22:22;7433.09;;;26.38;71.53
54503;BME280;40411;50.090;21.954;2023-07-31T06:24:48;7437.31;;;26.61;68.80
54503;BME280;40411;50.090;21.954;2023-07-31T06:27:14;8105.69;;;26.23;71.05
54503;BME280;40411;50.090;21.954;2023-07-31T06:29:40;6765.06;;;26.80;68.98
54503;BME280;40411;50.090;21.954;2023-07-31T06:32:06;8106.66;;;26.28;70.92
54503;BME280;40411;50.090;21.954;2023-07-31T06:34:33;7772.81;;;26.49;70.03
54503;BME280;40411;50.090;21.954;2023-07-31T06:36:58;6766.00;;;26.86;69.71
54503;BME280;40411;50.090;21.954;2023-07-31T06:39:24;7101.63;;;26.73;69.24
54503;BME280;40411;50.090;21.954;2023-07-31T06:41:50;8442.03;;;26.17;70.22
54503;BME280;40411;50.090;21.954;2023-07-31T06:44:16;6764.97;;;26.80;70.18
54503;BME280;40411;50.090;21.954;2023-07-31T06:46:42;6094.88;;;27.14;69.05
54503;BME280;40411;50.090;21.954;2023-07-31T06:49:08;5088.13;;;27.62;67.58
54503;BME280;40411;50.090;21.954;2023-07-31T06:51:34;5423.72;;;27.45;68.44
54503;BME280;40411;50.090;21.954;2023-07-31T06:54:01;6767.81;;;26.96;68.70
54503;BME280;40411;50.090;21.954;2023-07-31T06:56:27;6764.88;;;26.79;70.09
54503;BME280;40411;50.090;21.954;2023-07-31T06:58:53;6766.25;;;26.87;69.90
54503;BME280;40411;50.090;21.954;2023-07-31T07:01:18;6765.56;;;26.83;70.29
54503;BME280;40411;50.090;21.954;2023-07-31T07:03:45;7774.22;;;26.57;69.60
54503;BME280;40411;50.090;21.954;2023-07-31T07:06:10;6093.81;;;27.07;70.39
54503;BME280;40411;50.090;21.954;2023-07-31T07:08:36;6095.91;;;27.21;68.75
54503;BME280;40411;50.090;21.954;2023-07-31T07:11:02;6429.19;;;26.92;69.23
54503;BME280;40411;50.090;21.954;2023-07-31T07:13:28;5423.72;;;27.45;67.91
54503;BME280;40411;50.090;21.954;2023-07-31T07:15:53;3744.03;;;28.27;65.73
54503;BME280;40411;50.090;21.954;2023-07-31T07:18:19;4417.78;;;28.05;66.20
54503;BME280;40411;50.090;21.954;2023-07-31T07:20:49;7778.25;;;26.79;67.27
54503;BME280;40411;50.090;21.954;2023-07-31T07:23:15;7103.66;;;26.85;68.55
54503;BME280;40411;50.090;21.954;2023-07-31T07:25:42;5087.84;;;27.60;68.03
54503;BME280;40411;50.090;21.954;2023-07-31T07:28:09;5763.91;;;27.59;66.16
54503;BME280;40411;50.090;21.954;2023-07-31T07:30:35;6767.53;;;26.95;68.78
54503;BME280;40411;50.090;21.954;2023-07-31T07:33:02;6438.13;;;27.47;65.04
54503;BME280;40411;50.090;21.954;2023-07-31T07:35:27;6436.13;;;27.34;66.33
54503;BME280;40411;50.090;21.954;2023-07-31T07:37:53;4081.25;;;28.19;65.57
54503;BME280;40411;50.090;21.954;2023-07-31T07:40:20;4420.63;;;28.27;64.49
54503;BME280;40411;50.090;21.954;2023-07-31T07:42:46;7105.94;;;26.98;67.84
54503;BME280;40411;50.090;21.954;2023-07-31T07:45:12;5093.16;;;27.97;64.69
54503;BME280;40411;50.090;21.954;2023-07-31T07:47:40;4757.44;;;28.16;64.06
54503;BME280;40411;50.090;21.954;2023-07-31T07:50:06;2739.03;;;29.19;61.60
54503;BME280;40411;50.090;21.954;2023-07-31T07:52:32;4088.38;;;28.75;61.06
54503;BME280;40411;50.090;21.954;2023-07-31T07:54:58;2740.09;;;29.29;60.46
54503;BME280;40411;50.090;21.954;2023-07-31T07:57:26;4087.88;;;28.71;61.36
54503;BME280;40411;50.090;21.954;2023-07-31T07:59:52;3751.63;;;28.90;61.30
54503;BME280;40411;50.090;21.954;2023-07-31T08:02:18;2405.63;;;29.71;58.20
54503;BME280;40411;50.090;21.954;2023-07-31T10:21:10;1383.34;;;29.05;65.50
54503;BME280;40411;50.090;21.954;2023-07-31T10:23:37;1727.38;;;29.66;60.00
54503;BME280;40411;50.090;21.954;2023-07-31T10:26:05;7442.88;;;26.92;66.57
54503;BME280;40411;50.090;21.954;2023-07-31T10:28:34;5430.34;;;27.90;64.84
54503;BME280;40411;50.090;21.954;2023-07-31T10:31:03;6771.50;;;27.18;66.37
54503;BME280;40411;50.090;21.954;2023-07-31T10:33:30;7107.38;;;27.06;66.66
54503;BME280;40411;50.090;21.954;2023-07-31T10:36:16;8774.03;;;25.89;73.15
54503;BME280;40411;50.090;21.954;2023-07-31T10:38:43;9768.63;;;25.05;77.60
54503;BME280;40411;50.090;21.954;2023-07-31T10:41:09;5740.41;;;26.05;79.84
54503;BME280;40411;50.090;21.954;2023-07-31T10:43:37;6750.56;;;25.94;77.88
54503;BME280;40411;50.090;21.954;2023-07-31T10:46:11;3059.75;;;27.57;72.55
54503;BME280;40411;50.090;21.954;2023-07-31T10:48:38;3065.88;;;28.13;68.27
54503;BME280;40411;50.090;21.954;2023-07-31T10:51:11;4076.59;;;27.82;68.27
54503;BME280;40411;50.090;21.954;2023-07-31T10:53:38;5085.28;;;27.42;69.64
54503;BME280;40411;50.090;21.954;2023-07-31T10:56:09;5079.41;;;27.01;72.75
54503;BME280;40411;50.090;21.954;2023-07-31T10:58:36;5417.69;;;27.04;72.53
54503;BME280;40411;50.090;21.954;2023-07-31T11:01:04;6095.66;;;27.19;68.76
54503;BME280;40411;50.090;21.954;2023-07-31T11:06:13;4077.22;;;27.87;67.31
54503;BME280;40411;50.090;21.954;2023-07-31T11:08:47;2736.94;;;29.00;63.25
54503;BME280;40411;50.090;21.954;2023-07-31T11:11:15;3407.69;;;28.44;65.01
54503;BME280;40411;50.090;21.954;2023-07-31T11:13:49;6103.25;;;27.67;64.16
54503;BME280;40411;50.090;21.954;2023-07-31T11:16:17;6442.47;;;27.73;62.49
54503;BME280;40411;50.090;21.954;2023-07-31T11:18:45;6105.84;;;27.83;63.08
54503;BME280;40411;50.090;21.954;2023-07-31T11:21:14;5433.22;;;28.10;62.39
54503;BME280;40411;50.090;21.954;2023-07-31T11:23:41;6108.44;;;28.00;61.68
54503;BME280;40411;50.090;21.954;2023-07-31T11:26:10;9797.72;;;26.40;65.41
54503;BME280;40411;50.090;21.954;2023-07-31T11:28:37;5433.06;;;28.09;61.99
54503;BME280;40411;50.090;21.954;2023-07-31T11:31:04;4760.94;;;28.41;61.66
54503;BME280;40411;50.090;21.954;2023-07-31T11:33:30;6108.03;;;27.97;61.53
54503;BME280;40411;50.090;21.954;2023-07-31T11:35:57;6449.22;;;28.15;59.55
54503;BME280;40411;50.090;21.954;2023-07-31T11:38:25;6445.47;;;27.92;61.49
54503;BME280;40411;50.090;21.954;2023-07-31T11:40:55;7454.13;;;27.55;62.31
54503;BME280;40411;50.090;21.954;2023-07-31T11:43:22;7452.09;;;27.44;63.92
54503;BME280;40411;50.090;21.954;2023-07-31T11:45:51;6103.66;;;27.70;66.03
54503;BME280;40411;50.090;21.954;2023-07-31T11:48:22;7452.47;;;27.46;63.30
54503;BME280;40411;50.090;21.954;2023-07-31T11:50:50;8792.19;;;26.80;64.75
54503;BME280;40411;50.090;21.954;2023-07-31T11:53:20;8117.28;;;26.85;66.58
54503;BME280;40411;50.090;21.954;2023-07-31T11:55:48;8122.91;;;27.14;63.89
54503;BME280;40411;50.090;21.954;2023-07-31T11:58:15;7118.75;;;27.72;61.26
54503;BME280;40411;50.090;21.954;2023-07-31T12:00:43;3754.31;;;29.12;59.63
54503;BME280;40411;50.090;21.954;2023-07-31T12:03:10;5780.19;;;28.66;57.82
54503;BME280;40411;50.090;21.954;2023-07-31T12:05:37;3420.56;;;29.54;56.98
54503;BME280;40411;50.090;21.954;2023-07-31T12:08:11;3424.75;;;29.90;54.43
54503;BME280;40411;50.090;21.954;2023-07-31T12:10:39;4093.13;;;29.12;59.77
54503;BME280;40411;50.090;21.954;2023-07-31T12:13:09;3420.38;;;29.53;58.48
54503;BME280;40411;50.090;21.954;2023-07-31T12:15:42;6116.47;;;28.50;58.65
54503;BME280;40411;50.090;21.954;2023-07-31T12:18:14;4762.91;;;28.56;62.56
54503;BME280;40411;50.090;21.954;2023-07-31T12:20:42;5772.69;;;28.17;62.36
54503;BME280;40411;50.090;21.954;2023-07-31T12:25:44;7119.91;;;27.78;61.72
54503;BME280;40411;50.090;21.954;2023-07-31T12:28:13;7452.47;;;27.46;64.21
54503;BME280;40411;50.090;21.954;2023-07-31T12:30:40;5093.28;;;27.98;66.32
54503;BME280;40411;50.090;21.954;2023-07-31T12:33:15;6106.91;;;27.90;64.61
54503;BME280;40411;50.090;21.954;2023-07-31T12:35:45;5098.03;;;28.32;63.27
54503;BME280;40411;50.090;21.954;2023-07-31T12:38:12;5771.34;;;28.08;63.74
54503;BME280;40411;50.090;21.954;2023-07-31T12:40:40;6110.47;;;28.13;62.84
54503;BME280;40411;50.090;21.954;2023-07-31T12:43:07;7457.59;;;27.75;62.00
54503;BME280;40411;50.090;21.954;2023-07-31T12:45:33;9132.78;;;26.92;64.24
54503;BME280;40411;50.090;21.954;2023-07-31T12:47:59;8461.81;;;27.18;64.60
54503;BME280;40411;50.090;21.954;2023-07-31T12:50:26;7789.34;;;27.39;64.12
54503;BME280;40411;50.090;21.954;2023-07-31T12:52:56;10135.69;;;26.41;66.92
54503;BME280;40411;50.090;21.954;2023-07-31T12:55:22;9132.47;;;26.91;65.08
54503;BME280;40411;50.090;21.954;2023-07-31T12:57:49;9465.16;;;26.65;65.65
54503;BME280;40411;50.090;21.954;2023-07-31T13:00:16;8791.88;;;26.78;66.78
54503;BME280;40411;50.090;21.954;2023-07-31T13:02:42;7447.25;;;27.17;67.32
54503;BME280;40411;50.090;21.954;2023-07-31T13:05:08;7448.63;;;27.25;66.74
54503;BME280;40411;50.090;21.954;2023-07-31T13:07:34;7116.44;;;27.58;63.76
54503;BME280;40411;50.090;21.954;2023-07-31T13:10:00;7116.16;;;27.57;65.00
54503;BME280;40411;50.090;21.954;2023-07-31T13:12:26;6782.09;;;27.81;62.66
54503;BME280;40411;50.090;21.954;2023-07-31T13:14:52;4092.34;;;29.06;59.53
54503;BME280;40411;50.090;21.954;2023-07-31T13:17:18;5107.00;;;28.94;57.57
54503;BME280;40411;50.090;21.954;2023-07-31T13:19:44;4097.09;;;29.44;57.01
54503;BME280;40411;50.090;21.954;2023-07-31T13:22:10;5115.06;;;29.51;52.98
54503;BME280;40411;50.090;21.954;2023-07-31T13:24:36;4438.50;;;29.62;54.91
54503;BME280;40411;50.090;21.954;2023-07-31T13:27:02;6128.47;;;29.26;53.30
54503;BME280;40411;50.090;21.954;2023-07-31T13:29:28;7142.44;;;29.08;51.55
54503;BME280;40411;50.090;21.954;2023-07-31T13:31:55;8150.06;;;28.58;52.92
54503;BME280;40411;50.090;21.954;2023-07-31T13:34:21;5791.19;;;29.37;53.92
54503;BME280;40411;50.090;21.954;2023-07-31T13:36:47;6130.41;;;29.38;53.86
54503;BME280;40411;50.090;21.954;2023-07-31T13:39:13;7144.94;;;29.22;51.44
54503;BME280;40411;50.090;21.954;2023-07-31T13:41:39;8826.88;;;28.53;52.96
54503;BME280;40411;50.090;21.954;2023-07-31T13:44:05;8156.88;;;28.93;50.89
54503;BME280;40411;50.090;21.954;2023-07-31T13:46:31;6471.34;;;29.50;51.22
54503;BME280;40411;50.090;21.954;2023-07-31T13:48:58;7821.84;;;29.15;51.11
54503;BME280;40411;50.090;21.954;2023-07-31T13:51:25;8494.09;;;28.84;51.29
54503;BME280;40411;50.090;21.954;2023-07-31T13:53:53;8828.19;;;28.60;52.90
54503;BME280;40411;50.090;21.954;2023-07-31T13:56:19;6467.75;;;29.28;53.57
54503;BME280;40411;50.090;21.954;2023-07-31T13:58:44;10177.16;;;28.28;51.75
54503;BME280;40411;50.090;21.954;2023-07-31T14:01:10;9166.69;;;28.58;52.75
54503;BME280;40411;50.090;21.954;2023-07-31T14:03:39;10183.94;;;28.59;50.03
54503;BME280;40411;50.090;21.954;2023-07-31T14:06:05;9510.38;;;28.80;49.97
54503;BME280;40411;50.090;21.954;2023-07-31T14:08:31;9178.06;;;29.13;48.08
54503;BME280;40411;50.090;21.954;2023-07-31T14:10:57;9852.56;;;28.94;47.82
54503;BME280;40411;50.090;21.954;2023-07-31T14:13:23;9515.13;;;29.03;48.17
54503;BME280;40411;50.090;21.954;2023-07-31T14:15:49;9514.28;;;28.99;49.89
54503;BME280;40411;50.090;21.954;2023-07-31T14:18:15;9512.56;;;28.90;49.21
54503;BME280;40411;50.090;21.954;2023-07-31T14:20:41;8501.09;;;29.20;49.97
54503;BME280;40411;50.090;21.954;2023-07-31T14:23:07;8840.31;;;29.20;49.21
54503;BME280;40411;50.090;21.954;2023-07-31T14:25:33;10191.09;;;28.91;48.33
54503;BME280;40411;50.090;21.954;2023-07-31T14:27:59;10188.13;;;28.78;48.73
54503;BME280;40411;50.090;21.954;2023-07-31T14:30:25;9515.25;;;29.03;49.32
54503;BME280;40411;50.090;21.954;2023-07-31T14:32:50;10189.63;;;28.85;48.50
54503;BME280;40411;50.090;21.954;2023-07-31T14:35:16;8837.75;;;29.07;50.22
54503;BME280;40411;50.090;21.954;2023-07-31T14:37:43;11539.28;;;28.55;48.06
54503;BME280;40411;50.090;21.954;2023-07-31T14:40:11;9854.34;;;29.03;48.70
54503;BME280;40411;50.090;21.954;2023-07-31T14:42:38;10192.00;;;28.95;48.35
54503;BME280;40411;50.090;21.954;2023-07-31T14:45:05;9176.50;;;29.05;50.07
54503;BME280;40411;50.090;21.954;2023-07-31T14:47:31;8838.69;;;29.12;50.18
54503;BME280;40411;50.090;21.954;2023-07-31T14:49:58;11198.84;;;28.49;49.46
54503;BME280;40411;50.090;21.954;2023-07-31T14:52:24;9511.03;;;28.83;51.11
54503;BME280;40411;50.090;21.954;2023-07-31T14:54:50;10193.59;;;29.03;47.77
54503;BME280;40411;50.090;21.954;2023-07-31T14:57:16;11206.59;;;28.82;47.40
54503;BME280;40411;50.090;21.954;2023-07-31T14:59:42;10539.13;;;29.30;45.30
54503;BME280;40411;50.090;21.954;2023-07-31T15:02:11;11886.66;;;28.88;45.56
54503;BME280;40411;50.090;21.954;2023-07-31T15:04:37;10875.59;;;29.17;45.89
54503;BME280;40411;50.090;21.954;2023-07-31T15:07:03;13236.47;;;28.60;44.79
54503;BME280;40411;50.090;21.954;2023-07-31T15:09:29;13571.00;;;28.42;45.32
54503;BME280;40411;50.090;21.954;2023-07-31T15:11:56;11544.38;;;28.76;47.60
54503;BME280;40411;50.090;21.954;2023-07-31T15:14:23;13230.28;;;28.37;47.01
54503;BME280;40411;50.090;21.954;2023-07-31T15:16:49;13568.47;;;28.33;47.08
54503;BME280;40411;50.090;21.954;2023-07-31T15:19:15;14234.53;;;27.90;48.75
54503;BME280;40411;50.090;21.954;2023-07-31T15:21:41;13891.69;;;27.76;50.29
54503;BME280;40411;50.090;21.954;2023-07-31T15:24:07;13557.56;;;27.93;49.54
54503;BME280;40411;50.090;21.954;2023-07-31T15:26:33;12549.22;;;28.26;49.49